Time;durP1;ratioP1;P1;durP2;ratioP2;P2;SDS_P1;SDS_P2;PMS_P1;PMS_P2;Temp;Humidity;BMP_temperature;BMP_pressure;BME280_temperature;BME280_humidity;BME280_pressure;Samples;Min_cycle;Max_cycle;Signal;HPM_P1;HPM_P2
2024/02/27 00:00:25;;;;;;;58.40;38.90;;;;;;;10.10;100.00;100122.98;106595;1254;98460;-79
2024/02/27 00:03:31;;;;;;;53.30;34.90;;;;;;;10.07;100.00;100128.05;106455;1260;103785;-80
2024/02/27 00:06:16;;;;;;;57.20;36.50;;;;;;;10.04;100.00;100130.66;106718;1254;99112;-80
2024/02/27 00:09:02;;;;;;;56.10;36.70;;;;;;;10.03;100.00;100129.11;106091;1257;98033;-80
2024/02/27 00:11:49;;;;;;;57.20;37.20;;;;;;;9.99;100.00;100131.66;106597;1259;97877;-80
2024/02/27 00:14:34;;;;;;;59.70;38.50;;;;;;;9.97;100.00;100133.82;106512;1259;99387;-79
2024/02/27 00:17:22;;;;;;;52.40;36.70;;;;;;;9.91;100.00;100135.01;106834;1257;101347;-80
2024/02/27 00:20:08;;;;;;;55.70;35.70;;;;;;;9.87;100.00;100132.05;106693;1259;99875;-80
2024/02/27 00:22:54;;;;;;;55.80;36.30;;;;;;;9.81;100.00;100132.54;106615;1254;98018;-80
2024/02/27 00:25:40;;;;;;;54.00;35.10;;;;;;;9.77;100.00;100136.36;106653;1254;97977;-79
2024/02/27 00:28:26;;;;;;;52.00;33.50;;;;;;;9.71;100.00;100139.90;106404;1255;97867;-80
2024/02/27 00:31:11;;;;;;;57.40;36.40;;;;;;;9.66;100.00;100143.13;106531;1254;102325;-79
2024/02/27 00:33:57;;;;;;;60.00;35.70;;;;;;;9.61;100.00;100148.16;106391;1259;99108;-80
2024/02/27 00:36:42;;;;;;;52.40;35.90;;;;;;;9.58;100.00;100148.88;106494;1257;99020;-80
2024/02/27 00:39:28;;;;;;;61.70;37.20;;;;;;;9.56;100.00;100151.24;105871;1260;97972;-81
2024/02/27 00:42:13;;;;;;;50.70;34.10;;;;;;;9.55;100.00;100154.27;106557;1259;98136;-78
2024/02/27 00:44:59;;;;;;;52.30;35.30;;;;;;;9.54;100.00;100156.40;105630;1260;101290;-78
2024/02/27 00:47:44;;;;;;;54.20;34.50;;;;;;;9.54;100.00;100162.32;105802;1259;99103;-79
2024/02/27 00:50:30;;;;;;;49.70;32.40;;;;;;;9.52;100.00;100160.02;105927;1253;98948;-78
2024/02/27 00:53:19;;;;;;;48.00;31.90;;;;;;;9.49;100.00;100160.70;105787;1255;97943;-80
2024/02/27 00:56:06;;;;;;;52.60;33.70;;;;;;;9.44;100.00;100160.48;106682;1259;98312;-81
2024/02/27 00:58:52;;;;;;;54.00;35.20;;;;;;;9.40;100.00;100165.50;106593;1257;101364;-80
2024/02/27 01:01:37;;;;;;;52.30;33.70;;;;;;;9.38;100.00;100171.48;106732;1254;100318;-80
2024/02/27 01:04:22;;;;;;;56.50;34.40;;;;;;;9.36;100.00;100166.29;106591;1259;99961;-80
2024/02/27 01:07:08;;;;;;;48.30;33.30;;;;;;;9.33;100.00;100168.44;106563;1259;97976;-80
2024/02/27 01:09:53;;;;;;;48.70;32.70;;;;;;;9.31;100.00;100174.00;106809;1259;97928;-80
2024/02/27 01:12:39;;;;;;;48.60;34.10;;;;;;;9.30;100.00;100173.42;106627;1259;102421;-80
2024/02/27 01:15:24;;;;;;;57.40;34.40;;;;;;;9.29;100.00;100172.54;106629;1259;100260;-79
2024/02/27 01:18:10;;;;;;;51.50;35.10;;;;;;;9.27;100.00;100171.30;106745;1260;98479;-80
2024/02/27 01:20:56;;;;;;;51.30;33.10;;;;;;;9.26;100.00;100174.14;106017;1254;98842;-80
2024/02/27 01:23:41;;;;;;;53.00;33.70;;;;;;;9.24;100.00;100180.45;106054;1260;98466;-79
2024/02/27 01:26:27;;;;;;;53.10;34.70;;;;;;;9.21;100.00;100179.94;106313;1255;101315;-80
2024/02/27 01:29:13;;;;;;;53.30;34.90;;;;;;;9.18;100.00;100181.13;106096;1264;99723;-79
2024/02/27 01:31:58;;;;;;;54.30;35.30;;;;;;;9.16;100.00;100185.26;106191;1254;97944;-80
2024/02/27 01:34:44;;;;;;;53.70;34.50;;;;;;;9.15;100.00;100184.55;106630;1257;97873;-80
2024/02/27 01:37:30;;;;;;;49.20;34.50;;;;;;;9.13;100.00;100185.69;106746;1259;99139;-80
2024/02/27 01:40:15;;;;;;;50.00;33.00;;;;;;;9.11;100.00;100183.11;106655;1259;101319;-79
2024/02/27 01:43:01;;;;;;;51.30;34.50;;;;;;;9.09;100.00;100180.20;106847;1260;100474;-80
2024/02/27 01:45:47;;;;;;;52.10;33.50;;;;;;;9.06;100.00;100183.13;106523;1255;98965;-79
2024/02/27 01:48:33;;;;;;;52.20;34.60;;;;;;;9.04;100.00;100183.66;105921;1255;97859;-80
2024/02/27 01:51:19;;;;;;;52.80;34.20;;;;;;;8.99;100.00;100191.51;106536;1257;96709;-79
2024/02/27 01:54:05;;;;;;;60.50;37.30;;;;;;;8.96;100.00;100194.83;106370;1259;103008;-79
2024/02/27 01:56:52;;;;;;;56.00;37.90;;;;;;;8.92;100.00;100199.30;106051;1261;99144;-79
2024/02/27 01:59:41;;;;;;;56.30;36.90;;;;;;;8.90;100.00;100204.36;106097;1260;99244;-80
2024/02/27 02:02:34;;;;;;;55.30;36.00;;;;;;;8.89;100.00;100201.20;106122;1260;99271;-80
2024/02/27 02:05:20;;;;;;;56.90;35.10;;;;;;;8.87;100.00;100198.14;105905;1254;97932;-80
2024/02/27 02:08:05;;;;;;;52.50;34.40;;;;;;;8.87;100.00;100201.95;105916;1260;101373;-77
2024/02/27 02:10:51;;;;;;;48.10;31.90;;;;;;;8.85;100.00;100202.14;105877;1260;99247;-78
2024/02/27 02:13:38;;;;;;;45.50;30.80;;;;;;;8.84;100.00;100202.65;105865;1258;98709;-79
2024/02/27 02:16:23;;;;;;;54.00;35.50;;;;;;;8.82;100.00;100201.34;105822;1260;97948;-80
2024/02/27 02:19:09;;;;;;;56.50;36.20;;;;;;;8.79;100.00;100211.45;106476;1254;98487;-78
2024/02/27 02:21:56;;;;;;;51.60;34.20;;;;;;;8.78;100.00;100214.27;106005;1257;102084;-80
2024/02/27 02:24:42;;;;;;;55.40;33.30;;;;;;;8.76;100.00;100216.21;105942;1254;99060;-79
2024/02/27 02:27:30;;;;;;;51.20;34.50;;;;;;;8.75;100.00;100216.80;106064;1260;99228;-79
2024/02/27 02:30:16;;;;;;;50.40;32.70;;;;;;;8.74;100.00;100214.63;105780;1254;97874;-79
2024/02/27 02:33:01;;;;;;;46.30;31.20;;;;;;;8.72;100.00;100214.84;106689;1259;97952;-80
2024/02/27 02:35:46;;;;;;;53.70;33.00;;;;;;;8.69;100.00;100214.11;106745;1254;101974;-80
2024/02/27 02:38:33;;;;;;;47.20;31.20;;;;;;;8.67;100.00;100219.04;106656;1255;99136;-81
2024/02/27 02:41:18;;;;;;;46.90;29.90;;;;;;;8.65;100.00;100221.77;106705;1257;97775;-81
2024/02/27 02:44:05;;;;;;;44.10;29.30;;;;;;;8.63;100.00;100220.95;106765;1254;97875;-81
2024/02/27 02:46:51;;;;;;;44.20;28.80;;;;;;;8.60;100.00;100223.75;106616;1254;98005;-79
2024/02/27 02:49:36;;;;;;;46.80;28.70;;;;;;;8.57;100.00;100225.71;106915;1257;102654;-80
2024/02/27 02:52:22;;;;;;;41.90;28.90;;;;;;;8.53;100.00;100228.79;106649;1260;100290;-80
2024/02/27 02:55:08;;;;;;;44.80;30.20;;;;;;;8.50;100.00;100226.89;106374;1256;99011;-79
2024/02/27 02:57:55;;;;;;;43.00;28.80;;;;;;;8.47;100.00;100226.48;105775;1260;98805;-79
2024/02/27 03:00:40;;;;;;;41.10;28.00;;;;;;;8.44;100.00;100226.14;105859;1257;99029;-78
2024/02/27 03:03:26;;;;;;;43.80;28.00;;;;;;;8.42;100.00;100228.98;105914;1260;103254;-80
2024/02/27 03:06:12;;;;;;;46.50;29.90;;;;;;;8.40;100.00;100224.58;105950;1257;99043;-79
2024/02/27 03:08:57;;;;;;;47.20;30.30;;;;;;;8.38;100.00;100225.42;106541;1257;97970;-80
2024/02/27 03:11:42;;;;;;;45.70;31.10;;;;;;;8.38;100.00;100227.83;105886;1258;97964;-79
2024/02/27 03:14:28;;;;;;;47.40;31.50;;;;;;;8.37;100.00;100227.76;106020;1254;98428;-78
2024/02/27 03:17:14;;;;;;;50.20;31.30;;;;;;;8.36;100.00;100225.69;106018;1254;101475;-78
2024/02/27 03:20:00;;;;;;;48.10;30.70;;;;;;;8.36;100.00;100227.36;106126;1258;99829;-80
2024/02/27 03:22:46;;;;;;;48.50;30.80;;;;;;;8.35;100.00;100232.60;106153;1254;99420;-79
2024/02/27 03:25:31;;;;;;;44.10;30.00;;;;;;;8.34;100.00;100239.15;106233;1257;97874;-80
2024/02/27 03:28:17;;;;;;;46.10;30.30;;;;;;;8.32;100.00;100245.95;106231;1254;98065;-79
2024/02/27 03:31:03;;;;;;;50.60;32.10;;;;;;;8.31;100.00;100242.75;106348;1257;102121;-80
2024/02/27 03:33:48;;;;;;;46.80;31.00;;;;;;;8.29;100.00;100246.34;106857;1254;99120;-80
2024/02/27 03:36:39;;;;;;;50.30;31.40;;;;;;;8.28;100.00;100247.11;106864;1254;98947;-79
2024/02/27 03:39:24;;;;;;;50.20;32.80;;;;;;;8.28;100.00;100248.17;106718;1260;97909;-79
2024/02/27 03:42:10;;;;;;;54.90;32.20;;;;;;;8.28;100.00;100247.48;106879;1254;97910;-80
2024/02/27 03:44:55;;;;;;;53.70;32.40;;;;;;;8.28;100.00;100245.68;106789;1254;101370;-80
2024/02/27 03:47:41;;;;;;;52.00;31.90;;;;;;;8.29;100.00;100250.41;106674;1254;100438;-79
2024/02/27 03:50:27;;;;;;;53.40;31.90;;;;;;;8.29;100.00;100252.50;106809;1254;99064;-80
2024/02/27 03:53:12;;;;;;;44.70;29.70;;;;;;;8.28;100.00;100251.58;106224;1254;97769;-78
2024/02/27 03:55:59;;;;;;;47.20;31.80;;;;;;;8.26;100.00;100252.06;106971;1254;98033;-78
2024/02/27 03:58:46;;;;;;;45.80;29.40;;;;;;;8.24;100.00;100258.60;105777;1257;102926;-78
2024/02/27 04:01:32;;;;;;;49.30;31.40;;;;;;;8.23;100.00;100259.27;106438;1254;100419;-79
2024/02/27 04:04:17;;;;;;;48.60;29.50;;;;;;;8.21;100.00;100260.24;105724;1257;97959;-79
2024/02/27 04:07:03;;;;;;;46.40;28.40;;;;;;;8.18;100.00;100258.30;105996;1254;97925;-80
2024/02/27 04:09:48;;;;;;;41.20;28.00;;;;;;;8.15;100.00;100254.90;106113;1254;98484;-79
2024/02/27 04:12:34;;;;;;;42.90;29.50;;;;;;;8.13;100.00;100259.98;106157;1257;102583;-79
2024/02/27 04:15:20;;;;;;;41.40;27.50;;;;;;;8.10;100.00;100258.16;106041;1258;100076;-78
2024/02/27 04:18:05;;;;;;;45.70;28.70;;;;;;;8.08;100.00;100255.95;105999;1254;97945;-79
2024/02/27 04:20:51;;;;;;;46.50;29.20;;;;;;;8.06;100.00;100254.86;106118;1253;97893;-80
2024/02/27 04:23:37;;;;;;;44.40;30.80;;;;;;;8.06;100.00;100253.80;105953;1254;97896;-79
2024/02/27 04:26:23;;;;;;;46.00;29.60;;;;;;;8.08;100.00;100250.66;105916;1254;102584;-79
2024/02/27 04:29:08;;;;;;;46.80;30.60;;;;;;;8.08;100.00;100249.50;106032;1257;100387;-79
2024/02/27 04:31:54;;;;;;;44.50;29.90;;;;;;;8.08;100.00;100248.76;105835;1259;99100;-79
2024/02/27 04:34:41;;;;;;;48.70;32.10;;;;;;;8.08;100.00;100254.65;106000;1257;97875;-78
2024/02/27 04:37:27;;;;;;;50.00;30.80;;;;;;;8.08;100.00;100253.09;105835;1254;98414;-78
2024/02/27 04:40:13;;;;;;;52.90;31.90;;;;;;;8.08;100.00;100258.89;106018;1254;101359;-79
2024/02/27 04:42:59;;;;;;;48.60;31.30;;;;;;;8.09;100.00;100266.80;105873;1261;99072;-78
2024/02/27 04:45:44;;;;;;;50.80;32.10;;;;;;;8.09;100.00;100263.79;105860;1254;98509;-78
2024/02/27 04:48:30;;;;;;;47.90;31.00;;;;;;;8.08;100.00;100266.42;106214;1257;98985;-80
2024/02/27 04:51:15;;;;;;;46.90;29.30;;;;;;;8.07;100.00;100263.70;106336;1258;97861;-80
2024/02/27 04:54:01;;;;;;;47.60;30.70;;;;;;;8.06;100.00;100258.07;106779;1253;101338;-79
2024/02/27 04:56:47;;;;;;;44.30;29.40;;;;;;;8.06;100.00;100261.96;106284;1257;99803;-77
2024/02/27 04:59:33;;;;;;;44.80;28.90;;;;;;;8.06;100.00;100265.77;105727;1258;98439;-79
2024/02/27 05:02:20;;;;;;;46.30;29.80;;;;;;;8.05;100.00;100267.81;105800;1257;97845;-78
2024/02/27 05:05:06;;;;;;;45.90;29.20;;;;;;;8.04;100.00;100268.46;105964;1256;98466;-78
2024/02/27 05:07:51;;;;;;;47.80;30.70;;;;;;;8.03;100.00;100270.54;105911;1258;101318;-78
2024/02/27 05:10:37;;;;;;;49.90;32.10;;;;;;;8.03;100.00;100269.55;106023;1257;99108;-79
2024/02/27 05:13:23;;;;;;;53.50;33.20;;;;;;;8.02;100.00;100275.48;105943;1257;97985;-79
2024/02/27 05:16:09;;;;;;;53.80;34.30;;;;;;;8.02;100.00;100281.75;105839;1260;97954;-79
2024/02/27 05:18:54;;;;;;;54.30;33.40;;;;;;;8.02;100.00;100285.68;105954;1257;98354;-79
2024/02/27 05:21:39;;;;;;;51.20;31.60;;;;;;;8.00;100.00;100289.36;105919;1254;101436;-79
2024/02/27 05:24:25;;;;;;;43.60;30.40;;;;;;;7.98;100.00;100297.52;105975;1253;99148;-79
2024/02/27 05:27:11;;;;;;;47.00;30.00;;;;;;;7.96;100.00;100300.77;105925;1257;98081;-79
2024/02/27 05:29:57;;;;;;;52.90;30.40;;;;;;;7.94;100.00;100308.05;105882;1254;97944;-80
2024/02/27 05:32:43;;;;;;;45.40;29.30;;;;;;;7.91;100.00;100309.78;105902;1258;97948;-79
2024/02/27 05:35:28;;;;;;;49.90;30.90;;;;;;;7.91;100.00;100310.55;105833;1257;102101;-80
2024/02/27 05:38:14;;;;;;;44.00;29.60;;;;;;;7.90;100.00;100306.03;105868;1254;99129;-79
2024/02/27 05:40:59;;;;;;;50.00;30.60;;;;;;;7.90;100.00;100309.63;105980;1257;98744;-79
2024/02/27 05:43:45;;;;;;;48.70;29.80;;;;;;;7.89;100.00;100309.41;106163;1254;97889;-80
2024/02/27 05:46:30;;;;;;;53.10;31.70;;;;;;;7.89;100.00;100315.64;105935;1259;98770;-79
2024/02/27 05:49:16;;;;;;;58.00;32.80;;;;;;;7.88;100.00;100323.84;105718;1254;101400;-79
2024/02/27 05:52:03;;;;;;;56.60;32.90;;;;;;;7.88;100.00;100326.95;106445;1254;99089;-78
2024/02/27 05:54:48;;;;;;;53.60;32.10;;;;;;;7.86;100.00;100332.41;105899;1254;99534;-79
2024/02/27 05:57:33;;;;;;;59.20;32.80;;;;;;;7.86;100.00;100337.29;105907;1254;98000;-78
2024/02/27 06:00:19;;;;;;;54.90;33.20;;;;;;;7.85;100.00;100338.98;105876;1253;100698;-79
2024/02/27 06:03:05;;;;;;;48.80;31.40;;;;;;;7.84;100.00;100343.36;105922;1253;102337;-78
2024/02/27 06:05:51;;;;;;;52.20;32.70;;;;;;;7.83;100.00;100341.84;105918;1260;100062;-78
2024/02/27 06:08:36;;;;;;;51.30;30.30;;;;;;;7.83;100.00;100349.04;105893;1253;97905;-79
2024/02/27 06:11:22;;;;;;;48.40;30.30;;;;;;;7.83;100.00;100354.05;105861;1260;98667;-79
2024/02/27 06:14:08;;;;;;;48.70;32.30;;;;;;;7.83;100.00;100353.42;105940;1254;97876;-79
2024/02/27 06:16:54;;;;;;;48.90;32.90;;;;;;;7.84;100.00;100355.10;106001;1257;101376;-79
2024/02/27 06:19:44;;;;;;;53.30;32.40;;;;;;;7.85;100.00;100354.33;106075;1254;99153;-78
2024/02/27 06:22:31;;;;;;;57.70;32.80;;;;;;;7.86;100.00;100358.43;106064;1254;98485;-78
2024/02/27 06:25:16;;;;;;;51.10;32.40;;;;;;;7.87;100.00;100361.52;105942;1254;97953;-79
2024/02/27 06:28:02;;;;;;;52.10;32.60;;;;;;;7.88;100.00;100359.41;105870;1254;99265;-79
2024/02/27 06:30:48;;;;;;;55.50;33.50;;;;;;;7.91;100.00;100362.13;105994;1254;101330;-79
2024/02/27 06:33:33;;;;;;;54.10;32.80;;;;;;;7.94;100.00;100361.60;105862;1254;100425;-79
2024/02/27 06:36:19;;;;;;;47.90;32.80;;;;;;;7.97;100.00;100366.52;106622;1254;97980;-79
2024/02/27 06:39:04;;;;;;;53.80;33.40;;;;;;;8.01;100.00;100362.77;106471;1253;97988;-79
2024/02/27 06:41:50;;;;;;;53.90;33.10;;;;;;;8.04;100.00;100364.72;106110;1253;97889;-79
2024/02/27 06:44:38;;;;;;;54.80;33.40;;;;;;;8.07;100.00;100364.37;106044;1257;103157;-80
2024/02/27 06:47:24;;;;;;;60.20;33.60;;;;;;;8.10;100.00;100361.88;106210;1254;99059;-80
2024/02/27 06:50:10;;;;;;;57.80;33.80;;;;;;;8.13;100.00;100361.02;106577;1254;97915;-81
2024/02/27 06:52:56;;;;;;;55.60;33.10;;;;;;;8.16;100.00;100358.70;106687;1254;97947;-79
2024/02/27 06:55:42;;;;;;;59.60;34.60;;;;;;;8.18;100.00;100356.83;106534;1257;97918;-80
2024/02/27 06:58:28;;;;;;;57.60;34.50;;;;;;;8.21;100.00;100355.64;105935;1254;102545;-80
2024/02/27 07:01:14;;;;;;;56.40;36.50;;;;;;;8.23;100.00;100352.48;106663;1254;99281;-80
2024/02/27 07:04:00;;;;;;;60.40;36.70;;;;;;;8.25;100.00;100349.38;106731;1254;98426;-80
2024/02/27 07:06:45;;;;;;;60.60;37.80;;;;;;;8.27;100.00;100349.39;106552;1257;98051;-80
2024/02/27 07:09:31;;;;;;;84.10;50.50;;;;;;;8.30;100.00;100350.30;106479;1254;98479;-79
2024/02/27 07:12:16;;;;;;;65.20;40.50;;;;;;;8.32;100.00;100351.62;106478;1256;102501;-78
2024/02/27 07:15:02;;;;;;;58.60;37.80;;;;;;;8.35;100.00;100356.11;105962;1257;100363;-78
2024/02/27 07:17:48;;;;;;;57.60;36.50;;;;;;;8.38;100.00;100353.73;105936;1256;97985;-79
2024/02/27 07:20:33;;;;;;;60.70;35.00;;;;;;;8.42;100.00;100354.05;106039;1257;98488;-80
2024/02/27 07:23:19;;;;;;;62.30;35.80;;;;;;;8.47;100.00;100356.02;106079;1257;97964;-80
2024/02/27 07:26:04;;;;;;;60.90;36.70;;;;;;;8.54;100.00;100359.71;106131;1254;101313;-77
2024/02/27 07:28:50;;;;;;;60.80;36.50;;;;;;;8.62;100.00;100362.52;105890;1257;99066;-84
2024/02/27 07:31:36;;;;;;;58.20;35.70;;;;;;;8.70;100.00;100363.22;106360;1257;99543;-81
2024/02/27 07:34:23;;;;;;;56.70;35.90;;;;;;;8.77;100.00;100362.77;106569;1259;98072;-82
2024/02/27 07:37:13;;;;;;;57.20;35.60;;;;;;;8.83;100.00;100368.77;106409;1257;97959;-83
2024/02/27 07:39:59;;;;;;;60.30;35.80;;;;;;;8.87;100.00;100370.04;106214;1253;101421;-79
2024/02/27 07:42:45;;;;;;;52.80;32.50;;;;;;;8.90;100.00;100366.63;106329;1253;100154;-84
2024/02/27 07:45:33;;;;;;;60.70;34.30;;;;;;;8.93;100.00;100369.83;106303;1253;97894;-80
2024/02/27 07:48:20;;;;;;;57.20;35.70;;;;;;;8.96;100.00;100370.48;106525;1254;98397;-84
2024/02/27 07:51:34;;;;;;;54.60;35.40;;;;;;;9.00;100.00;100369.11;106613;1259;98046;-78
2024/02/27 07:54:21;;;;;;;53.60;35.50;;;;;;;9.05;100.00;100371.07;106032;1257;101394;-79
2024/02/27 07:57:06;;;;;;;56.70;35.90;;;;;;;9.09;100.00;100371.96;106350;1254;99936;-78
2024/02/27 07:59:52;;;;;;;60.60;35.40;;;;;;;9.14;100.00;100371.61;106011;1253;97932;-78
2024/02/27 08:02:38;;;;;;;65.40;40.20;;;;;;;9.19;100.00;100371.52;106350;1253;97974;-85
2024/02/27 08:05:25;;;;;;;93.40;50.90;;;;;;;9.24;100.00;100365.05;106430;1253;98424;-79
2024/02/27 08:08:13;;;;;;;86.60;48.90;;;;;;;9.28;100.00;100362.20;106404;1253;101873;-81
2024/02/27 08:10:59;;;;;;;75.50;42.00;;;;;;;9.33;100.00;100366.52;106657;1256;99272;-80
2024/02/27 08:13:45;;;;;;;111.10;52.20;;;;;;;9.40;100.00;100363.27;106797;1254;98937;-80
2024/02/27 08:16:31;;;;;;;115.00;53.20;;;;;;;9.46;100.00;100368.19;106813;1254;97979;-81
2024/02/27 08:19:17;;;;;;;233.40;86.60;;;;;;;9.53;100.00;100368.84;106783;1254;98423;-89
2024/02/27 08:22:04;;;;;;;267.40;105.20;;;;;;;9.59;100.00;100370.92;106641;1253;102517;-81
2024/02/27 08:24:49;;;;;;;165.80;80.10;;;;;;;9.66;100.00;100366.70;106694;1253;100290;-80
2024/02/27 08:27:35;;;;;;;223.70;125.30;;;;;;;9.73;100.00;100356.18;106627;1254;98242;-81
2024/02/27 08:30:20;;;;;;;108.10;63.80;;;;;;;9.79;100.00;100356.42;106593;1257;97893;-80
2024/02/27 08:33:09;;;;;;;76.10;44.70;;;;;;;9.85;100.00;100356.98;106585;1254;98478;-81
2024/02/27 08:35:54;;;;;;;69.30;45.50;;;;;;;9.88;100.00;100361.35;106588;1253;101469;-81
2024/02/27 08:38:46;;;;;;;59.50;40.00;;;;;;;9.91;100.00;100369.98;106361;1254;99059;-81
2024/02/27 08:41:34;;;;;;;56.50;33.80;;;;;;;9.93;100.00;100374.00;106311;1257;99015;-84
2024/02/27 08:44:21;;;;;;;69.10;41.00;;;;;;;9.97;100.00;100376.68;106622;1253;98433;-84
2024/02/27 08:47:07;;;;;;;55.80;37.10;;;;;;;10.02;100.00;100382.66;106841;1257;97957;-84
2024/02/27 08:49:52;;;;;;;57.80;36.60;;;;;;;10.06;100.00;100381.79;106628;1253;101789;-80
2024/02/27 08:52:38;;;;;;;57.40;36.20;;;;;;;10.12;100.00;100374.90;106753;1254;99129;-88
2024/02/27 08:55:25;;;;;;;53.00;34.80;;;;;;;10.18;100.00;100376.45;106281;1254;99048;-85
2024/02/27 08:58:10;;;;;;;56.50;35.80;;;;;;;10.25;100.00;100377.52;106356;1253;97969;-79
2024/02/27 09:00:56;;;;;;;57.30;34.50;;;;;;;10.33;100.00;100380.27;105791;1257;97991;-77
2024/02/27 09:03:43;;;;;;;64.40;40.00;;;;;;;10.41;100.00;100383.57;105806;1256;102135;-77
2024/02/27 09:06:29;;;;;;;53.60;33.90;;;;;;;10.49;100.00;100378.76;105954;1257;100503;-77
2024/02/27 09:09:15;;;;;;;55.50;34.50;;;;;;;10.55;100.00;100379.41;106441;1256;98961;-79
2024/02/27 09:12:01;;;;;;;52.50;35.30;;;;;;;10.59;100.00;100379.50;106324;1253;97887;-79
2024/02/27 09:14:47;;;;;;;52.80;33.60;;;;;;;10.61;100.00;100387.73;106345;1253;97936;-79
2024/02/27 09:17:34;;;;;;;48.70;31.10;;;;;;;10.64;100.00;100390.73;106347;1253;102601;-79
2024/02/27 09:20:20;;;;;;;57.50;33.90;;;;;;;10.69;100.00;100384.05;106826;1253;100523;-79
2024/02/27 09:23:06;;;;;;;45.00;32.30;;;;;;;10.72;100.00;100376.12;106383;1257;99047;-78
2024/02/27 09:25:51;;;;;;;53.10;33.30;;;;;;;10.75;100.00;100374.34;105760;1258;97973;-76
2024/02/27 09:28:37;;;;;;;56.20;35.00;;;;;;;10.79;100.00;100372.91;105795;1253;98460;-80
2024/02/27 09:31:23;;;;;;;64.10;40.60;;;;;;;10.85;100.00;100375.45;106784;1253;102572;-79
2024/02/27 09:34:09;;;;;;;68.40;45.30;;;;;;;10.91;100.00;100375.95;106879;1253;100113;-79
2024/02/27 09:36:55;;;;;;;58.60;38.00;;;;;;;10.97;100.00;100379.96;106792;1256;99405;-79
2024/02/27 09:39:41;;;;;;;55.80;35.50;;;;;;;11.04;100.00;100376.70;107176;1253;98393;-80
2024/02/27 09:42:29;;;;;;;52.90;33.70;;;;;;;11.12;100.00;100377.96;106706;1257;97920;-79
2024/02/27 09:45:16;;;;;;;53.20;33.00;;;;;;;11.23;100.00;100384.44;105663;1253;101340;-77
2024/02/27 09:48:03;;;;;;;54.00;34.00;;;;;;;11.33;100.00;100391.34;105787;1253;100759;-78
2024/02/27 09:50:52;;;;;;;59.00;35.70;;;;;;;11.41;100.00;100394.20;105639;1257;98052;-77
2024/02/27 09:53:39;;;;;;;57.00;35.10;;;;;;;11.51;100.00;100401.91;105618;1259;99215;-79
2024/02/27 09:56:25;;;;;;;55.30;35.10;;;;;;;11.61;100.00;100400.64;105678;1257;97942;-78
2024/02/27 09:59:11;;;;;;;48.70;32.40;;;;;;;11.70;100.00;100404.10;105590;1257;101334;-77
2024/02/27 10:02:05;;;;;;;45.00;29.70;;;;;;;11.78;100.00;100402.13;105687;1253;100427;-79
2024/02/27 10:04:52;;;;;;;49.80;32.80;;;;;;;11.86;100.00;100399.64;105736;1254;97964;-78
2024/02/27 10:07:39;;;;;;;48.10;31.60;;;;;;;11.93;100.00;100404.42;105771;1254;98469;-79
2024/02/27 10:10:24;;;;;;;51.30;31.30;;;;;;;12.00;100.00;100410.32;105755;1257;98433;-77
2024/02/27 10:13:10;;;;;;;47.30;30.60;;;;;;;12.07;100.00;100416.23;105730;1254;101963;-79
2024/02/27 10:15:56;;;;;;;41.90;28.90;;;;;;;12.14;100.00;100422.06;105746;1254;100067;-78
2024/02/27 10:18:42;;;;;;;47.30;29.90;;;;;;;12.22;100.00;100421.55;105660;1259;99240;-79
2024/02/27 10:21:28;;;;;;;43.40;29.40;;;;;;;12.29;100.00;100420.99;105648;1253;98392;-77
2024/02/27 10:24:25;;;;;;;43.70;28.20;;;;;;;12.36;100.00;100415.92;105747;1253;98587;-77
2024/02/27 10:27:11;;;;;;;40.50;27.80;;;;;;;12.42;100.00;100415.61;105786;1257;102098;-79
2024/02/27 10:29:57;;;;;;;39.90;27.30;;;;;;;12.50;100.00;100415.34;105698;1254;99090;-78
2024/02/27 10:32:43;;;;;;;43.30;26.70;;;;;;;12.57;100.00;100413.96;105579;1253;99231;-79
2024/02/27 10:35:32;;;;;;;42.80;26.20;;;;;;;12.64;100.00;100416.77;105929;1253;97102;-87
2024/02/27 10:38:18;;;;;;;40.80;27.20;;;;;;;12.72;100.00;100414.39;106599;1253;98380;-85
2024/02/27 10:41:04;;;;;;;44.70;27.10;;;;;;;12.79;100.00;100413.82;106210;1255;101324;-84
2024/02/27 10:43:50;;;;;;;36.00;24.10;;;;;;;12.88;100.00;100412.80;106315;1254;102462;-87
2024/02/27 10:46:36;;;;;;;41.40;26.20;;;;;;;12.96;100.00;100408.33;106112;1254;97899;-80
2024/02/27 10:49:23;;;;;;;39.60;24.90;;;;;;;13.03;100.00;100408.59;106441;1257;98038;-84
2024/02/27 10:52:11;;;;;;;34.70;24.70;;;;;;;13.12;100.00;100404.05;105655;1257;99572;-84
2024/02/27 10:55:19;;;;;;;48.70;29.70;;;;;;;13.20;100.00;100406.82;106284;1259;102989;-86
2024/02/27 10:58:05;;;;;;;33.90;24.30;;;;;;;13.29;100.00;100408.52;106484;1257;99004;-86
2024/02/27 11:00:51;;;;;;;35.10;23.90;;;;;;;13.37;100.00;100403.73;106316;1260;99046;-85
2024/02/27 11:03:41;;;;;;;34.20;23.10;;;;;;;13.46;100.00;100407.98;106198;1253;97887;-83
2024/02/27 11:06:29;;;;;;;31.90;22.70;;;;;;;13.55;100.00;100408.64;106274;1254;98472;-83
2024/02/27 11:09:19;;;;;;;32.70;23.30;;;;;;;13.62;100.00;100405.63;106334;1257;101403;-84
2024/02/27 11:12:08;;;;;;;32.40;22.20;;;;;;;13.70;100.00;100407.39;106337;1254;100355;-84
2024/02/27 11:15:03;;;;;;;32.30;21.20;;;;;;;13.77;100.00;100408.94;106202;1262;97900;-83
2024/02/27 11:18:10;;;;;;;35.70;22.10;;;;;;;13.83;100.00;100410.45;106433;1253;98072;-84
2024/02/27 11:20:56;;;;;;;34.70;22.40;;;;;;;13.90;100.00;100408.37;106286;1253;97910;-83
2024/02/27 11:23:42;;;;;;;31.60;20.50;;;;;;;13.98;100.00;100407.14;106277;1254;103694;-84
2024/02/27 11:26:30;;;;;;;30.50;22.10;;;;;;;14.06;100.00;100407.55;105910;1254;99544;-85
2024/02/27 11:29:18;;;;;;;32.00;21.50;;;;;;;14.15;100.00;100404.56;106390;1253;98801;-85
2024/02/27 11:32:04;;;;;;;29.90;20.60;;;;;;;14.21;100.00;100403.09;106469;1253;97852;-86
2024/02/27 11:34:50;;;;;;;26.50;20.30;;;;;;;14.29;100.00;100404.56;107088;1255;97952;-85
2024/02/27 11:37:36;;;;;;;25.60;19.10;;;;;;;14.37;100.00;100404.27;107321;1257;102782;-79
2024/02/27 11:40:47;;;;;;;26.80;19.90;;;;;;;14.44;100.00;100403.65;106343;1254;99223;-86
2024/02/27 11:43:33;;;;;;;31.70;20.20;;;;;;;14.52;100.00;100403.36;107219;1254;100046;-86
2024/02/27 11:46:31;;;;;;;29.10;20.70;;;;;;;14.61;100.00;100404.17;106889;1253;97762;-86
2024/02/27 11:49:37;;;;;;;28.50;19.20;;;;;;;14.73;100.00;100400.95;106989;1254;98561;-80
2024/02/27 11:52:23;;;;;;;22.50;17.80;;;;;;;14.86;100.00;100399.60;106594;1253;101441;-82
2024/02/27 11:55:10;;;;;;;20.30;15.90;;;;;;;14.96;100.00;100397.61;106425;1254;100098;-83
2024/02/27 11:58:02;;;;;;;24.00;17.40;;;;;;;15.06;100.00;100397.44;106346;1253;99018;-84
2024/02/27 12:00:50;;;;;;;17.30;13.80;;;;;;;15.14;100.00;100401.94;106300;1253;97982;-86
2024/02/27 12:03:37;;;;;;;15.40;12.80;;;;;;;15.20;100.00;100400.55;106240;1253;98418;-84
2024/02/27 12:06:24;;;;;;;17.10;13.40;;;;;;;15.27;100.00;100399.05;106220;1260;102034;-86
2024/02/27 12:09:21;;;;;;;19.10;14.00;;;;;;;15.33;100.00;100398.89;106270;1257;100423;-85
2024/02/27 12:12:07;;;;;;;17.80;12.70;;;;;;;15.40;100.00;100396.45;106301;1254;99048;-84
2024/02/27 12:14:53;;;;;;;17.60;13.30;;;;;;;15.47;100.00;100397.05;106543;1256;98373;-85
2024/02/27 12:17:39;;;;;;;14.80;11.50;;;;;;;15.50;100.00;100396.34;106096;1256;98482;-85
2024/02/27 12:20:24;;;;;;;16.40;11.40;;;;;;;15.54;100.00;100391.66;106292;1253;101440;-84
2024/02/27 12:23:13;;;;;;;33.80;21.20;;;;;;;15.55;99.82;100389.69;106595;1257;99282;-87